KMOP/MOP METAR and TAF weather

Enter ICAO airport designator
Station Type Date Time Source
KMOP METAR 2020/12/05 05:15 UTC NOAA

KMOP 050515Z AUTO 33007KT 10SM OVC025 01/M04 A3001 RMK AO2 T00071040


Station Type Date Time Source
KMOP Decoded METAR 2020/12/05 05:15 UTC NOAA

Mount Pleasant, Mount Pleasant Municipal Airport, MI, United States (KMOP) 43-37N 84-44W
Dec 05, 2020 - 12:15 AM EST / 2020.12.05 0515 UTC
Wind: from the NNW (330 degrees) at 8 MPH (7 KT):0
Visibility: 10 mile(s):0
Sky conditions: overcast
Temperature: 33.3 F (0.7 C)
Windchill: 26 F (-3 C):1
Dew Point: 24.8 F (-4.0 C)
Relative Humidity: 70%
Pressure (altimeter): 30.01 in. Hg (1016 hPa)
ob: KMOP 050515Z AUTO 33007KT 10SM OVC025 01/M04 A3001 RMK AO2 T00071040
cycle: 5

Station Type Date Time Source
KMOP TAF UTC NOAA

Error!

Example: see airport list